Glennallen, AK (99588)

2:08 PM AKDT on October 22, 2014 (GMT -0800)
AKDOT Glenn Highway @ MP 176.6 | Change Station
CLOSE
Current Station
Personal Weather Station
Location: Glennallen, AK
Elevation: 2112 ft
Nearby Weather Stations

Elev 2112 ft 62.11 °N, 145.85 °W | Updated 43 minutes ago

Overcast
Overcast
28 °F
Feels Like 28 °F
N
2
Wind Variable Wind from North
Gusts 4.0 mph

Today
High -- | Low -- °F
--% Chance of Precip.
Yesterday
High -- | Low -- °F
Precip. -- in
8:49 AM 6:08 PM
Waning Crescent, 1% visible
Pressure 29.51 in
Visibility 10.0 miles
Clouds Overcast 600 ft
Windchill 28 °F
Dew Point 24 °F
Humidity 84%
Rainfall -999.00 in
Snow Depth Not available.
UV 0 out of 12
Pollen Not available.
Air Quality Not available.
Flu Activity Sporadic
METAR PAGK 222153Z AUTO 00000KT 10SM OVC006 M04/M05 A2942 RMK AO2 SLP993 T10391050 TSNO

More Conditions Fewer Conditions

Pressure 29.51 in
Visibility 10.0 miles
Clouds Overcast 600 ft
Windchill 28 °F
Dew Point 24 °F
Humidity 84%
Rainfall -999.00 in
Snow Depth Not available.
UV 0 out of 12
Pollen Not available.
Air Quality Not available.
Flu Activity Sporadic
METAR PAGK 222153Z AUTO 00000KT 10SM OVC006 M04/M05 A2942 RMK AO2 SLP993 T10391050 TSNO

More Conditions Fewer Conditions

10-Day Weather Forecast

Almanac

Astronomy

Oct. 22, 2014 Rise Set
Actual Time 8:49 AM AKDT 6:08 PM AKDT
Civil Twilight 8:03 AM AKDT 6:55 PM AKDT
Nautical Twilight 7:11 AM AKDT 7:46 PM AKDT
Astronomical Twilight 6:19 AM AKDT 8:38 PM AKDT
Moon 7:21 AM AKDT 5:53 PM AKDT
Length of Visible Light 10h 51m
Length of Day
9h 19m
Tomorrow will be 5m 52s shorter.
Waning Crescent, 1% of the Moon is Illuminated
Today
Waning Crescent
Oct 23
New
Oct 30
First Quarter
Nov 6
Full
Nov 14
Last Quarter

Today's Extremes

State Highs State Lows

Community

WunderPhotos

Upload Photos

1,764,052 photos uploaded!

WunderBlogs® & News

Nearby

Snow Depth

Station Depth Elevation
Upper Tsaina River 8 in 1750 ft
Moraine 0 in 2100 ft
Susitna Valley High 17 in 375 ft
Indian Pass 7 in 2300 ft
Turnagain Pass 8 in 1880 ft

Earthquake Activity

City Distance Mag. Time & Date
No recent earthquake activity has been reported nearby.
Minimum magnitude displayed is 2.5.

Coastal Water Temperatures

Place Temperature
No Stations Reporting

Nearby Weather Stations